Time;durP1;ratioP1;P1;durP2;ratioP2;P2;SDS_P1;SDS_P2;PMS_P1;PMS_P2;Temp;Humidity;BMP_temperature;BMP_pressure;BME280_temperature;BME280_humidity;BME280_pressure;Samples;Min_cycle;Max_cycle;Signal;HPM_P1;HPM_P2
2022/05/06 00:00:27;;;;;;;3.15;2.33;;;;;;;;;;5008901;28;20064;-75
2022/05/06 00:02:54;;;;;;;4.13;2.63;;;;;;;;;;5007497;28;20037;-74
2022/05/06 00:05:20;;;;;;;3.80;2.15;;;;;;;;;;5003181;28;20392;-74
2022/05/06 00:07:46;;;;;;;3.42;2.38;;;;;;;;;;5008774;28;20025;-74
2022/05/06 00:10:14;;;;;;;3.20;2.20;;;;;;;;;;5006379;28;20030;-73
2022/05/06 00:12:40;;;;;;;4.05;2.50;;;;;;;;;;5015994;28;20324;-74
2022/05/06 00:15:07;;;;;;;3.72;2.20;;;;;;;;;;5015642;28;20081;-75
2022/05/06 00:17:33;;;;;;;3.28;2.13;;;;;;;;;;5005484;28;20049;-74
2022/05/06 00:19:59;;;;;;;8.35;2.60;;;;;;;;;;5016316;28;20030;-74
2022/05/06 00:22:26;;;;;;;3.90;2.38;;;;;;;;;;5006564;28;20037;-75
2022/05/06 00:24:52;;;;;;;10.02;3.47;;;;;;;;;;5015159;28;20037;-74
2022/05/06 00:27:18;;;;;;;5.32;2.58;;;;;;;;;;5013909;28;20048;-73
2022/05/06 00:29:44;;;;;;;5.05;2.63;;;;;;;;;;5015942;28;20034;-73
2022/05/06 00:32:10;;;;;;;3.05;2.22;;;;;;;;;;5015691;28;20033;-74
2022/05/06 00:34:36;;;;;;;4.03;2.65;;;;;;;;;;5013148;28;20461;-74
2022/05/06 00:37:02;;;;;;;5.22;2.72;;;;;;;;;;5013841;28;20092;-74
2022/05/06 00:39:28;;;;;;;5.63;2.70;;;;;;;;;;5015405;28;20030;-75
2022/05/06 00:41:55;;;;;;;3.55;2.42;;;;;;;;;;5015559;28;20038;-73
2022/05/06 00:44:22;;;;;;;4.70;2.60;;;;;;;;;;5008560;28;20146;-74
2022/05/06 00:46:51;;;;;;;3.50;2.58;;;;;;;;;;5010537;28;20034;-74
2022/05/06 00:49:17;;;;;;;3.83;2.97;;;;;;;;;;5010443;28;20058;-74
2022/05/06 00:51:44;;;;;;;5.13;2.72;;;;;;;;;;5012778;28;20108;-73
2022/05/06 00:54:10;;;;;;;7.00;2.78;;;;;;;;;;5014711;28;20164;-73
2022/05/06 00:56:36;;;;;;;5.10;2.50;;;;;;;;;;5015198;28;20033;-73
2022/05/06 00:59:02;;;;;;;6.35;3.25;;;;;;;;;;5013547;28;20101;-73
2022/05/06 01:01:29;;;;;;;4.80;3.13;;;;;;;;;;5015841;28;20026;-73
2022/05/06 01:03:56;;;;;;;3.60;2.78;;;;;;;;;;5007189;28;20030;-73
2022/05/06 01:06:22;;;;;;;4.35;3.50;;;;;;;;;;5016753;28;20034;-73
2022/05/06 01:08:48;;;;;;;4.20;3.03;;;;;;;;;;5014737;28;20030;-73
2022/05/06 01:11:14;;;;;;;3.85;3.00;;;;;;;;;;5013036;28;20026;-74
2022/05/06 01:13:43;;;;;;;5.18;2.90;;;;;;;;;;5014754;28;20038;-74
2022/05/06 01:16:09;;;;;;;4.38;3.10;;;;;;;;;;5015015;28;20431;-75
2022/05/06 01:18:35;;;;;;;6.75;3.10;;;;;;;;;;5013655;28;20045;-74
2022/05/06 01:21:03;;;;;;;7.78;3.53;;;;;;;;;;5014941;28;20026;-74
2022/05/06 01:23:29;;;;;;;5.18;3.15;;;;;;;;;;5013284;28;20520;-75
2022/05/06 01:25:55;;;;;;;5.25;3.28;;;;;;;;;;5014195;28;20380;-74
2022/05/06 01:28:25;;;;;;;4.95;3.00;;;;;;;;;;5014087;28;20361;-74
2022/05/06 01:30:58;;;;;;;5.28;3.47;;;;;;;;;;5013903;28;20030;-73
2022/05/06 01:33:25;;;;;;;7.00;3.58;;;;;;;;;;5016254;28;20030;-74
2022/05/06 01:35:53;;;;;;;4.03;3.20;;;;;;;;;;5010612;28;20027;-76
2022/05/06 01:38:26;;;;;;;5.05;3.22;;;;;;;;;;5009332;28;20091;-73
2022/05/06 01:40:58;;;;;;;6.15;3.17;;;;;;;;;;5013457;28;20022;-74
2022/05/06 01:43:25;;;;;;;5.07;3.20;;;;;;;;;;5017168;28;20059;-74
2022/05/06 01:45:51;;;;;;;6.10;2.97;;;;;;;;;;5016256;28;20435;-74
2022/05/06 01:48:17;;;;;;;5.18;3.08;;;;;;;;;;5013988;28;20137;-74
2022/05/06 01:50:45;;;;;;;4.28;3.00;;;;;;;;;;5013379;28;20026;-75
2022/05/06 01:53:14;;;;;;;5.72;3.40;;;;;;;;;;5015557;28;20076;-74
2022/05/06 01:55:40;;;;;;;6.40;3.17;;;;;;;;;;5007702;28;20117;-74
2022/05/06 01:58:06;;;;;;;4.45;3.08;;;;;;;;;;5015588;28;20486;-73
2022/05/06 02:00:35;;;;;;;5.95;2.83;;;;;;;;;;5014403;28;20029;-75
2022/05/06 02:03:01;;;;;;;4.55;2.97;;;;;;;;;;5013222;28;20125;-74
2022/05/06 02:05:27;;;;;;;3.65;2.80;;;;;;;;;;5010950;28;20045;-73
2022/05/06 02:07:54;;;;;;;6.20;3.20;;;;;;;;;;5015857;28;20514;-75
2022/05/06 02:10:21;;;;;;;9.20;3.38;;;;;;;;;;5012284;28;20042;-75
2022/05/06 02:12:48;;;;;;;4.45;2.90;;;;;;;;;;5004042;28;20030;-74
2022/05/06 02:15:17;;;;;;;9.40;3.30;;;;;;;;;;5013250;28;20121;-74
2022/05/06 02:17:45;;;;;;;5.00;3.28;;;;;;;;;;5015908;28;20396;-74
2022/05/06 02:20:12;;;;;;;9.80;3.15;;;;;;;;;;5013795;28;20037;-74
2022/05/06 02:22:38;;;;;;;4.82;3.30;;;;;;;;;;5013480;28;20028;-74
2022/05/06 02:25:09;;;;;;;4.22;2.80;;;;;;;;;;5012973;28;20038;-72
2022/05/06 02:27:35;;;;;;;4.25;3.08;;;;;;;;;;5008056;28;20030;-73
2022/05/06 02:35:31;;;;;;;4.82;3.10;;;;;;;;;;5009169;28;20048;-73
2022/05/06 02:37:57;;;;;;;5.20;2.95;;;;;;;;;;5014307;28;20128;-74
2022/05/06 02:40:23;;;;;;;7.18;3.58;;;;;;;;;;5012346;28;20060;-73
2022/05/06 02:42:49;;;;;;;5.20;3.15;;;;;;;;;;5014350;28;20036;-74
2022/05/06 02:45:15;;;;;;;4.82;2.95;;;;;;;;;;5013207;28;20030;-73
2022/05/06 02:47:41;;;;;;;3.85;2.80;;;;;;;;;;5011154;28;20037;-74
2022/05/06 02:50:07;;;;;;;4.80;2.63;;;;;;;;;;5012029;28;20034;-73
2022/05/06 02:52:33;;;;;;;3.55;3.00;;;;;;;;;;5013579;28;20073;-74
2022/05/06 02:54:59;;;;;;;5.63;3.40;;;;;;;;;;5015482;28;20096;-73
2022/05/06 02:57:25;;;;;;;5.57;3.45;;;;;;;;;;5015316;28;20037;-73
2022/05/06 02:59:52;;;;;;;4.43;3.40;;;;;;;;;;5018400;28;20395;-74
2022/05/06 03:02:18;;;;;;;5.07;2.80;;;;;;;;;;5013811;28;20036;-74
2022/05/06 03:04:44;;;;;;;3.60;2.47;;;;;;;;;;5013371;28;20026;-75
2022/05/06 03:07:10;;;;;;;6.05;3.05;;;;;;;;;;5013796;28;20052;-74
2022/05/06 03:09:39;;;;;;;4.93;2.90;;;;;;;;;;5020936;28;20037;-74
2022/05/06 03:12:05;;;;;;;4.43;2.60;;;;;;;;;;5011259;28;20026;-73
2022/05/06 03:14:31;;;;;;;5.55;3.53;;;;;;;;;;5004656;28;20038;-74
2022/05/06 03:16:57;;;;;;;4.22;2.85;;;;;;;;;;5005690;28;20057;-74
2022/05/06 03:19:23;;;;;;;3.42;2.65;;;;;;;;;;5015143;28;20041;-73
2022/05/06 03:21:58;;;;;;;3.75;2.70;;;;;;;;;;5010324;28;20034;-73
2022/05/06 03:24:24;;;;;;;5.10;2.83;;;;;;;;;;5013463;28;20438;-74
2022/05/06 03:26:50;;;;;;;4.22;2.75;;;;;;;;;;5005570;28;20035;-74
2022/05/06 03:29:17;;;;;;;5.82;3.17;;;;;;;;;;5008128;28;20060;-74
2022/05/06 03:31:43;;;;;;;3.97;2.95;;;;;;;;;;5012714;28;20442;-73
2022/05/06 03:34:09;;;;;;;4.88;2.83;;;;;;;;;;5021246;28;20037;-74
2022/05/06 03:36:35;;;;;;;6.95;3.55;;;;;;;;;;5029422;28;20030;-74
2022/05/06 03:39:05;;;;;;;5.95;2.95;;;;;;;;;;5010833;28;20053;-73
2022/05/06 03:41:31;;;;;;;4.47;3.80;;;;;;;;;;5012481;28;20054;-74
2022/05/06 03:43:57;;;;;;;5.30;3.00;;;;;;;;;;5002875;28;20105;-73
2022/05/06 03:46:23;;;;;;;3.95;2.88;;;;;;;;;;5017592;28;20076;-74
2022/05/06 03:48:51;;;;;;;6.20;2.83;;;;;;;;;;5017581;28;20024;-74
2022/05/06 03:51:24;;;;;;;4.72;2.70;;;;;;;;;;5007861;28;20033;-75
2022/05/06 03:53:54;;;;;;;6.50;3.20;;;;;;;;;;5012292;28;20025;-73
2022/05/06 03:56:23;;;;;;;5.30;2.97;;;;;;;;;;5017565;28;20034;-74
2022/05/06 03:58:50;;;;;;;3.55;2.88;;;;;;;;;;5018334;28;20029;-73
2022/05/06 04:01:17;;;;;;;5.18;2.88;;;;;;;;;;5004508;28;20634;-74
2022/05/06 04:03:43;;;;;;;4.55;2.85;;;;;;;;;;5018241;28;20053;-73
2022/05/06 04:06:13;;;;;;;5.82;3.63;;;;;;;;;;5016859;28;20515;-73
2022/05/06 04:08:41;;;;;;;4.88;3.22;;;;;;;;;;5023605;28;20029;-75
2022/05/06 04:11:08;;;;;;;4.88;2.67;;;;;;;;;;5020527;28;20018;-74
2022/05/06 04:13:35;;;;;;;5.68;3.35;;;;;;;;;;5012037;28;20448;-74
2022/05/06 04:16:04;;;;;;;4.07;3.25;;;;;;;;;;5015900;28;20052;-73
2022/05/06 04:18:30;;;;;;;5.32;3.13;;;;;;;;;;5021129;28;20030;-72
2022/05/06 04:23:42;;;;;;;4.30;3.17;;;;;;;;;;5014922;28;20046;-74
2022/05/06 04:26:13;;;;;;;5.63;3.63;;;;;;;;;;5013878;28;20073;-74
2022/05/06 04:28:39;;;;;;;4.32;2.78;;;;;;;;;;5010909;28;20049;-74
2022/05/06 04:31:06;;;;;;;4.43;2.50;;;;;;;;;;5016590;28;20076;-74
2022/05/06 04:33:32;;;;;;;4.32;2.70;;;;;;;;;;5018540;28;20096;-74
2022/05/06 04:35:59;;;;;;;6.60;2.60;;;;;;;;;;5012120;28;20361;-73
2022/05/06 04:38:28;;;;;;;6.63;2.85;;;;;;;;;;5012913;28;20061;-73
2022/05/06 04:40:55;;;;;;;3.70;3.03;;;;;;;;;;5015946;28;20113;-73
2022/05/06 04:43:21;;;;;;;4.78;2.58;;;;;;;;;;5016116;28;20029;-73
2022/05/06 04:45:48;;;;;;;3.15;2.70;;;;;;;;;;5016423;28;20038;-73
2022/05/06 04:48:15;;;;;;;4.53;2.90;;;;;;;;;;5018531;28;20406;-75
2022/05/06 04:50:41;;;;;;;5.70;2.78;;;;;;;;;;5016359;28;20038;-76
2022/05/06 04:53:09;;;;;;;3.10;2.55;;;;;;;;;;5018319;28;20427;-73
2022/05/06 04:55:39;;;;;;;4.10;2.55;;;;;;;;;;5018135;28;20073;-72
2022/05/06 04:58:06;;;;;;;2.78;2.28;;;;;;;;;;5012801;28;20018;-72
2022/05/06 05:00:32;;;;;;;3.72;2.28;;;;;;;;;;5013524;28;20060;-75
2022/05/06 05:02:59;;;;;;;3.75;2.40;;;;;;;;;;5017830;28;20026;-73
2022/05/06 05:05:25;;;;;;;4.07;2.53;;;;;;;;;;5010436;28;20041;-74
2022/05/06 05:07:51;;;;;;;5.63;2.42;;;;;;;;;;5017233;28;20032;-73
2022/05/06 05:10:17;;;;;;;2.50;2.30;;;;;;;;;;5018121;28;20461;-74
2022/05/06 05:12:43;;;;;;;4.07;2.30;;;;;;;;;;5009352;28;20029;-74
2022/05/06 05:15:10;;;;;;;2.97;2.25;;;;;;;;;;5018910;28;20076;-74
2022/05/06 05:17:36;;;;;;;4.75;2.70;;;;;;;;;;5015578;28;20034;-74
2022/05/06 05:20:02;;;;;;;2.67;2.25;;;;;;;;;;5023494;28;20030;-74
2022/05/06 05:22:31;;;;;;;4.25;2.20;;;;;;;;;;5012186;28;20036;-74
2022/05/06 05:24:58;;;;;;;2.70;2.40;;;;;;;;;;5018982;28;20026;-74
2022/05/06 05:27:24;;;;;;;2.47;2.28;;;;;;;;;;5015881;28;20033;-74
2022/05/06 05:29:50;;;;;;;3.38;2.28;;;;;;;;;;5017298;28;20034;-75
2022/05/06 05:32:17;;;;;;;3.55;2.20;;;;;;;;;;5002546;28;20069;-73
2022/05/06 05:34:43;;;;;;;3.97;2.10;;;;;;;;;;5016191;28;20014;-74
2022/05/06 05:37:09;;;;;;;3.63;2.10;;;;;;;;;;5013964;28;20030;-75
2022/05/06 05:39:36;;;;;;;4.57;2.15;;;;;;;;;;5007906;28;20038;-73
2022/05/06 05:42:05;;;;;;;2.58;2.00;;;;;;;;;;5014290;28;20038;-73
2022/05/06 05:50:03;;;;;;;2.00;1.80;;;;;;;;;;5009490;28;20032;-73
2022/05/06 05:52:29;;;;;;;3.17;1.90;;;;;;;;;;5013748;28;20396;-74
2022/05/06 05:54:55;;;;;;;3.83;2.15;;;;;;;;;;5013250;28;20026;-75
2022/05/06 05:57:21;;;;;;;5.13;2.40;;;;;;;;;;5013666;28;20380;-74
2022/05/06 05:59:47;;;;;;;2.00;1.80;;;;;;;;;;5011798;28;20050;-73
2022/05/06 06:02:13;;;;;;;3.90;2.90;;;;;;;;;;5015727;28;20072;-74
2022/05/06 06:04:41;;;;;;;4.20;2.17;;;;;;;;;;5021381;28;20030;-74
2022/05/06 06:07:07;;;;;;;3.78;2.22;;;;;;;;;;5014812;28;20476;-72
2022/05/06 06:09:33;;;;;;;4.43;2.47;;;;;;;;;;5015780;28;20060;-73
2022/05/06 06:11:59;;;;;;;3.35;2.30;;;;;;;;;;5017038;28;20037;-73
2022/05/06 06:14:25;;;;;;;4.05;2.50;;;;;;;;;;5012362;28;20027;-73
2022/05/06 06:16:52;;;;;;;3.08;1.98;;;;;;;;;;5015377;28;20026;-75
2022/05/06 06:19:18;;;;;;;3.45;2.42;;;;;;;;;;5019166;28;20026;-75
2022/05/06 06:21:44;;;;;;;3.40;2.03;;;;;;;;;;5018827;28;20100;-72
2022/05/06 06:24:11;;;;;;;3.88;1.90;;;;;;;;;;5020203;28;20104;-72
2022/05/06 06:26:37;;;;;;;3.78;2.67;;;;;;;;;;5020031;28;20100;-75
2022/05/06 06:29:03;;;;;;;3.33;2.58;;;;;;;;;;5007366;28;20049;-75
2022/05/06 06:31:31;;;;;;;2.97;2.13;;;;;;;;;;5018260;28;20057;-75
2022/05/06 06:33:59;;;;;;;2.45;2.00;;;;;;;;;;5019432;28;20022;-75
2022/05/06 06:36:25;;;;;;;3.85;2.30;;;;;;;;;;5009264;28;20022;-74
2022/05/06 06:38:52;;;;;;;3.80;2.17;;;;;;;;;;5007052;28;20018;-75
2022/05/06 06:41:20;;;;;;;2.80;2.45;;;;;;;;;;5014270;28;20018;-74
2022/05/06 06:43:47;;;;;;;7.68;2.13;;;;;;;;;;5012998;28;20036;-73
2022/05/06 06:46:13;;;;;;;3.67;2.13;;;;;;;;;;5014001;28;20052;-74
2022/05/06 06:48:40;;;;;;;4.15;2.42;;;;;;;;;;5015923;28;20034;-75
2022/05/06 06:51:06;;;;;;;3.88;2.40;;;;;;;;;;5013993;28;20022;-74
2022/05/06 06:53:32;;;;;;;3.42;2.30;;;;;;;;;;5010841;28;20962;-76
2022/05/06 06:55:58;;;;;;;2.60;2.20;;;;;;;;;;5009064;28;20088;-75
2022/05/06 06:58:27;;;;;;;3.60;2.20;;;;;;;;;;5012961;28;20105;-74
2022/05/06 07:00:54;;;;;;;3.15;2.28;;;;;;;;;;5014681;28;20083;-74
2022/05/06 07:03:20;;;;;;;3.83;2.10;;;;;;;;;;5009310;28;20033;-73
2022/05/06 07:14:02;;;;;;;3.55;2.40;;;;;;;;;;5006198;28;20232;-76
2022/05/06 07:16:28;;;;;;;2.78;2.40;;;;;;;;;;5015933;28;20044;-74
2022/05/06 07:18:54;;;;;;;3.95;2.17;;;;;;;;;;5018019;28;20053;-74
2022/05/06 07:21:20;;;;;;;4.65;2.20;;;;;;;;;;5014305;28;20564;-74
2022/05/06 07:23:46;;;;;;;3.20;2.20;;;;;;;;;;5018540;28;20041;-75
2022/05/06 07:26:13;;;;;;;8.43;2.28;;;;;;;;;;5016529;28;20480;-74
2022/05/06 07:28:40;;;;;;;3.00;2.40;;;;;;;;;;5014885;28;20038;-75
2022/05/06 07:31:06;;;;;;;2.90;2.10;;;;;;;;;;5019632;28;20025;-74
2022/05/06 07:33:32;;;;;;;2.65;2.00;;;;;;;;;;5020990;28;20057;-75
2022/05/06 07:35:59;;;;;;;2.03;1.83;;;;;;;;;;5004723;28;20041;-75
2022/05/06 07:38:25;;;;;;;3.25;1.90;;;;;;;;;;5018875;28;20431;-73
2022/05/06 07:40:51;;;;;;;3.55;2.08;;;;;;;;;;5019888;28;20028;-75
2022/05/06 07:43:18;;;;;;;6.25;2.40;;;;;;;;;;5015295;28;20051;-74
2022/05/06 07:45:44;;;;;;;4.00;2.00;;;;;;;;;;5012674;28;20030;-75
2022/05/06 07:48:13;;;;;;;3.40;2.30;;;;;;;;;;5015033;28;20561;-77
2022/05/06 07:50:44;;;;;;;3.17;1.90;;;;;;;;;;5015292;28;20018;-76
2022/05/06 07:53:11;;;;;;;3.53;2.30;;;;;;;;;;5018520;28;20104;-76
2022/05/06 07:55:37;;;;;;;2.28;1.90;;;;;;;;;;5009814;28;20051;-74
2022/05/06 07:58:07;;;;;;;2.65;2.45;;;;;;;;;;5012487;28;20046;-73
2022/05/06 08:00:33;;;;;;;3.38;2.00;;;;;;;;;;5014514;28;20061;-74
2022/05/06 08:05:46;;;;;;;1.95;1.75;;;;;;;;;;5008487;28;20053;-76
2022/05/06 08:08:12;;;;;;;3.28;1.95;;;;;;;;;;5018403;28;20026;-76
2022/05/06 08:10:38;;;;;;;2.95;1.90;;;;;;;;;;5011257;28;20061;-76
2022/05/06 08:13:06;;;;;;;3.50;2.28;;;;;;;;;;5007399;28;20030;-75
2022/05/06 08:15:32;;;;;;;3.50;1.80;;;;;;;;;;5023728;28;20042;-75
2022/05/06 08:17:58;;;;;;;3.13;2.00;;;;;;;;;;5011447;28;20105;-75
2022/05/06 08:20:24;;;;;;;2.72;1.70;;;;;;;;;;5009566;28;20026;-75
2022/05/06 08:22:50;;;;;;;3.50;2.10;;;;;;;;;;5019564;28;20029;-74
2022/05/06 08:25:16;;;;;;;4.32;2.30;;;;;;;;;;5016029;28;20033;-75
2022/05/06 08:27:43;;;;;;;5.90;2.20;;;;;;;;;;5016397;28;20041;-74
2022/05/06 08:30:10;;;;;;;3.15;2.42;;;;;;;;;;5016416;28;20045;-75
2022/05/06 08:32:37;;;;;;;4.47;2.38;;;;;;;;;;5017655;28;20060;-74
2022/05/06 08:35:03;;;;;;;3.85;2.25;;;;;;;;;;5021843;28;20026;-76
2022/05/06 08:37:30;;;;;;;1.95;1.80;;;;;;;;;;5019063;28;20033;-74
2022/05/06 08:39:56;;;;;;;4.97;2.00;;;;;;;;;;5017596;28;20484;-75
2022/05/06 08:42:22;;;;;;;3.17;2.25;;;;;;;;;;5008144;28;20040;-75
2022/05/06 08:53:06;;;;;;;5.07;2.20;;;;;;;;;;5015734;28;20038;-76
2022/05/06 08:55:33;;;;;;;2.65;2.10;;;;;;;;;;5012069;28;20019;-77
2022/05/06 08:57:59;;;;;;;2.33;2.10;;;;;;;;;;5022832;28;20104;-77
2022/05/06 09:00:26;;;;;;;3.40;2.25;;;;;;;;;;5018427;28;20547;-75
2022/05/06 09:02:52;;;;;;;2.33;1.67;;;;;;;;;;5016907;28;20144;-74
2022/05/06 09:05:19;;;;;;;2.70;1.83;;;;;;;;;;5008872;28;20033;-75
2022/05/06 09:07:55;;;;;;;3.47;2.33;;;;;;;;;;5009015;28;20038;-76
2022/05/06 09:10:21;;;;;;;2.95;2.30;;;;;;;;;;5010837;28;20091;-74
2022/05/06 09:12:52;;;;;;;3.78;1.92;;;;;;;;;;5007706;28;20030;-76
2022/05/06 09:18:04;;;;;;;3.42;2.25;;;;;;;;;;5008003;28;20033;-75
2022/05/06 09:20:30;;;;;;;4.45;2.42;;;;;;;;;;5008725;28;20069;-75
2022/05/06 09:22:57;;;;;;;3.97;2.10;;;;;;;;;;5016470;28;20025;-75
2022/05/06 09:25:43;;;;;;;2.47;2.00;;;;;;;;;;5026305;28;20049;-75
2022/05/06 09:28:28;;;;;;;2.67;1.95;;;;;;;;;;5016638;28;20022;-74
2022/05/06 09:31:00;;;;;;;2.90;2.50;;;;;;;;;;5017998;28;20037;-74
2022/05/06 09:33:28;;;;;;;3.22;2.10;;;;;;;;;;5015250;28;20111;-74
2022/05/06 09:35:55;;;;;;;4.43;2.72;;;;;;;;;;5012872;28;20524;-76
2022/05/06 09:38:21;;;;;;;2.67;2.00;;;;;;;;;;5023004;28;20034;-75
2022/05/06 09:40:47;;;;;;;3.63;2.10;;;;;;;;;;5017454;28;20029;-75
2022/05/06 09:43:17;;;;;;;5.03;2.95;;;;;;;;;;5013424;28;20022;-75
2022/05/06 09:45:44;;;;;;;3.10;2.35;;;;;;;;;;5026918;28;20026;-75
2022/05/06 09:48:14;;;;;;;3.83;2.10;;;;;;;;;;5011745;28;20037;-75
2022/05/06 09:50:41;;;;;;;5.47;2.65;;;;;;;;;;5015739;28;20070;-75
2022/05/06 09:53:08;;;;;;;4.05;2.42;;;;;;;;;;5007661;28;20033;-75
2022/05/06 09:55:38;;;;;;;3.55;2.30;;;;;;;;;;5010390;28;20026;-74
2022/05/06 09:58:05;;;;;;;2.80;2.10;;;;;;;;;;5014498;28;20543;-75
2022/05/06 10:00:32;;;;;;;5.93;2.47;;;;;;;;;;5006067;28;20047;-76
2022/05/06 10:03:00;;;;;;;2.97;2.22;;;;;;;;;;5010333;28;20026;-76
2022/05/06 10:05:27;;;;;;;3.45;2.20;;;;;;;;;;5010005;28;20036;-78
2022/05/06 10:07:55;;;;;;;4.57;2.30;;;;;;;;;;5009262;28;20029;-75
2022/05/06 10:10:31;;;;;;;4.07;2.10;;;;;;;;;;5012510;28;20069;-77
2022/05/06 10:13:02;;;;;;;4.00;2.30;;;;;;;;;;5010781;28;20080;-76
2022/05/06 10:15:29;;;;;;;3.00;2.00;;;;;;;;;;5011411;28;20060;-76
2022/05/06 10:17:56;;;;;;;2.47;2.25;;;;;;;;;;5009022;28;20034;-76
2022/05/06 10:20:38;;;;;;;3.38;2.33;;;;;;;;;;5006414;28;20393;-76
2022/05/06 10:23:07;;;;;;;3.00;2.20;;;;;;;;;;5009269;28;20022;-75
2022/05/06 10:25:43;;;;;;;3.70;2.45;;;;;;;;;;5010766;28;20038;-77
2022/05/06 10:34:06;;;;;;;2.92;2.17;;;;;;;;;;4999426;28;20220;-75
2022/05/06 10:36:49;;;;;;;4.00;2.38;;;;;;;;;;5004728;28;20021;-76
2022/05/06 10:39:21;;;;;;;6.88;2.67;;;;;;;;;;5008783;28;20695;-76
2022/05/06 10:42:06;;;;;;;4.03;2.92;;;;;;;;;;5003590;28;20058;-77
2022/05/06 10:44:36;;;;;;;2.78;2.20;;;;;;;;;;5007834;28;20511;-75
2022/05/06 10:47:03;;;;;;;2.85;2.40;;;;;;;;;;5004759;28;20060;-75
2022/05/06 10:49:35;;;;;;;3.83;2.20;;;;;;;;;;5008105;28;20101;-75
2022/05/06 10:52:14;;;;;;;3.33;2.42;;;;;;;;;;5008212;28;20034;-75
2022/05/06 10:54:40;;;;;;;2.40;2.20;;;;;;;;;;5004432;28;20033;-75
2022/05/06 10:57:07;;;;;;;4.28;2.13;;;;;;;;;;5003127;28;20066;-75
2022/05/06 10:59:49;;;;;;;4.60;2.35;;;;;;;;;;5004590;28;20037;-75
2022/05/06 11:02:16;;;;;;;2.90;2.38;;;;;;;;;;5007382;28;20037;-75
2022/05/06 11:04:42;;;;;;;3.78;2.75;;;;;;;;;;5004326;28;20076;-75
2022/05/06 11:07:14;;;;;;;2.80;2.00;;;;;;;;;;5011360;28;20026;-75
2022/05/06 11:09:41;;;;;;;3.35;1.98;;;;;;;;;;5009684;28;20121;-75
2022/05/06 11:12:07;;;;;;;4.93;2.35;;;;;;;;;;5005671;28;20095;-78
2022/05/06 11:14:33;;;;;;;3.22;2.00;;;;;;;;;;5008086;28;20060;-75
2022/05/06 11:17:15;;;;;;;5.35;2.10;;;;;;;;;;5004611;28;20014;-75
2022/05/06 11:19:41;;;;;;;2.45;1.90;;;;;;;;;;5007499;28;20038;-75
2022/05/06 11:22:08;;;;;;;2.10;1.90;;;;;;;;;;5007353;28;20030;-76
2022/05/06 11:24:34;;;;;;;2.80;2.10;;;;;;;;;;5007765;28;20022;-75
2022/05/06 11:27:17;;;;;;;4.65;2.20;;;;;;;;;;5007591;28;20049;-74
2022/05/06 11:29:47;;;;;;;5.55;2.42;;;;;;;;;;5007929;28;20029;-76
2022/05/06 11:32:13;;;;;;;2.90;2.20;;;;;;;;;;5008927;28;20022;-74
2022/05/06 11:34:46;;;;;;;2.58;2.00;;;;;;;;;;5008283;28;20045;-74
2022/05/06 11:37:20;;;;;;;3.83;1.90;;;;;;;;;;5015321;28;20022;-74
2022/05/06 11:39:46;;;;;;;2.95;2.03;;;;;;;;;;5017182;28;20034;-75
2022/05/06 11:42:22;;;;;;;2.67;2.00;;;;;;;;;;5014617;28;20403;-75
2022/05/06 11:47:42;;;;;;;2.53;2.20;;;;;;;;;;5009128;28;20041;-74
2022/05/06 11:50:09;;;;;;;2.40;2.20;;;;;;;;;;5012515;28;20546;-75
2022/05/06 11:52:36;;;;;;;1.90;1.75;;;;;;;;;;5015327;28;20048;-75
2022/05/06 11:55:03;;;;;;;3.88;1.80;;;;;;;;;;5011879;28;20022;-75
2022/05/06 11:57:29;;;;;;;2.10;1.80;;;;;;;;;;5015193;28;20021;-74
2022/05/06 11:59:56;;;;;;;3.80;2.00;;;;;;;;;;5015617;28;20034;-74
2022/05/06 12:02:22;;;;;;;3.25;1.90;;;;;;;;;;5014932;28;20473;-77
2022/05/06 12:04:48;;;;;;;4.97;1.90;;;;;;;;;;5002410;28;20045;-75
2022/05/06 12:07:14;;;;;;;2.30;2.00;;;;;;;;;;5013842;28;20149;-75
2022/05/06 12:09:44;;;;;;;2.78;2.10;;;;;;;;;;5014862;28;20034;-75
2022/05/06 12:12:11;;;;;;;3.15;2.47;;;;;;;;;;5012044;28;20025;-74
2022/05/06 12:14:37;;;;;;;2.85;1.98;;;;;;;;;;5013851;28;20088;-76
2022/05/06 12:17:10;;;;;;;2.13;1.80;;;;;;;;;;5010168;28;20022;-75
2022/05/06 12:19:37;;;;;;;2.67;2.00;;;;;;;;;;5004171;28;20031;-75
2022/05/06 12:22:07;;;;;;;3.55;1.67;;;;;;;;;;5008219;28;20026;-74
2022/05/06 12:24:42;;;;;;;2.20;2.00;;;;;;;;;;5011360;28;20022;-75
2022/05/06 12:27:09;;;;;;;1.80;1.70;;;;;;;;;;5006515;28;20552;-74
2022/05/06 12:29:39;;;;;;;2.22;1.80;;;;;;;;;;5010593;28;20044;-74
2022/05/06 12:32:06;;;;;;;2.72;1.90;;;;;;;;;;5011633;28;20120;-75
2022/05/06 12:34:33;;;;;;;3.72;1.70;;;;;;;;;;5010812;28;20045;-75
2022/05/06 12:37:10;;;;;;;2.38;1.80;;;;;;;;;;5009870;28;20014;-75
2022/05/06 12:39:48;;;;;;;3.17;1.73;;;;;;;;;;5009906;28;20034;-76
2022/05/06 12:42:15;;;;;;;2.00;1.80;;;;;;;;;;5011878;28;20439;-75
2022/05/06 12:44:41;;;;;;;2.10;1.88;;;;;;;;;;5010353;28;20163;-75
2022/05/06 12:47:13;;;;;;;1.77;1.67;;;;;;;;;;5010601;28;20061;-74
2022/05/06 12:49:40;;;;;;;2.13;1.92;;;;;;;;;;5006695;28;20029;-76
2022/05/06 12:52:10;;;;;;;2.40;1.63;;;;;;;;;;5006717;28;20472;-75
2022/05/06 12:54:37;;;;;;;2.28;1.65;;;;;;;;;;5008994;28;20029;-75
2022/05/06 12:57:04;;;;;;;2.20;1.70;;;;;;;;;;5007535;28;20511;-75
2022/05/06 12:59:30;;;;;;;1.30;1.20;;;;;;;;;;5004498;28;20397;-75
2022/05/06 13:01:56;;;;;;;0.93;0.93;;;;;;;;;;5008247;28;20093;-76
2022/05/06 13:04:22;;;;;;;5.15;1.40;;;;;;;;;;5008060;28;20053;-74
2022/05/06 13:06:49;;;;;;;4.20;1.73;;;;;;;;;;5008071;28;20107;-74
2022/05/06 13:09:15;;;;;;;1.20;1.10;;;;;;;;;;5014280;28;20029;-75
2022/05/06 13:11:41;;;;;;;2.28;1.20;;;;;;;;;;5016748;28;20037;-77
2022/05/06 13:14:07;;;;;;;6.10;1.60;;;;;;;;;;5011617;28;20496;-76
2022/05/06 13:16:37;;;;;;;1.35;1.25;;;;;;;;;;5020381;28;20053;-77
2022/05/06 13:19:04;;;;;;;1.52;1.35;;;;;;;;;;5016104;28;20535;-75
2022/05/06 13:21:30;;;;;;;1.58;1.42;;;;;;;;;;5010994;28;20040;-77
2022/05/06 13:23:56;;;;;;;4.43;1.90;;;;;;;;;;5006000;28;20097;-75
2022/05/06 13:26:23;;;;;;;3.90;2.08;;;;;;;;;;5007905;28;20030;-76
2022/05/06 13:28:49;;;;;;;2.40;1.90;;;;;;;;;;5013812;28;20773;-74
2022/05/06 13:31:15;;;;;;;2.42;1.70;;;;;;;;;;5013033;28;19987;-75
2022/05/06 13:33:41;;;;;;;3.90;1.83;;;;;;;;;;5005600;28;20800;-74
2022/05/06 13:36:07;;;;;;;1.90;1.65;;;;;;;;;;5008457;28;20025;-75
2022/05/06 13:38:33;;;;;;;6.03;2.13;;;;;;;;;;5009803;28;20051;-76
2022/05/06 13:40:59;;;;;;;2.78;1.80;;;;;;;;;;5009302;28;20030;-76
2022/05/06 13:43:25;;;;;;;4.15;2.42;;;;;;;;;;5007394;28;20544;-78
2022/05/06 13:45:51;;;;;;;3.95;2.00;;;;;;;;;;5009318;28;20121;-77
2022/05/06 13:48:17;;;;;;;3.33;1.98;;;;;;;;;;5015906;28;20031;-75
2022/05/06 13:50:44;;;;;;;3.55;2.00;;;;;;;;;;5008381;28;20068;-76
2022/05/06 13:53:10;;;;;;;5.22;2.35;;;;;;;;;;5006077;28;20030;-76
2022/05/06 14:01:10;;;;;;;2.40;1.77;;;;;;;;;;5004509;28;20072;-76
2022/05/06 14:03:36;;;;;;;5.07;2.13;;;;;;;;;;5003084;28;20543;-76
2022/05/06 14:06:02;;;;;;;2.00;1.60;;;;;;;;;;5002595;28;20061;-76
2022/05/06 14:08:28;;;;;;;2.00;1.63;;;;;;;;;;5007451;28;20061;-75
2022/05/06 14:10:54;;;;;;;4.18;2.20;;;;;;;;;;5006692;28;20026;-75
2022/05/06 14:13:21;;;;;;;4.75;3.45;;;;;;;;;;5006058;28;20034;-75
2022/05/06 14:15:47;;;;;;;3.03;2.72;;;;;;;;;;5005688;28;20042;-74
2022/05/06 14:18:13;;;;;;;4.18;2.88;;;;;;;;;;5016238;28;20029;-76
2022/05/06 14:20:39;;;;;;;3.15;2.33;;;;;;;;;;5009549;28;20116;-75
2022/05/06 14:23:05;;;;;;;4.95;2.92;;;;;;;;;;5015076;28;20376;-75
2022/05/06 14:25:31;;;;;;;3.90;3.50;;;;;;;;;;5018518;28;20105;-75
2022/05/06 14:27:57;;;;;;;5.53;3.70;;;;;;;;;;5017680;28;20029;-75
2022/05/06 14:30:24;;;;;;;4.85;4.22;;;;;;;;;;5022530;28;20033;-76
2022/05/06 14:32:50;;;;;;;4.05;2.72;;;;;;;;;;5011568;28;20030;-74
2022/05/06 14:35:16;;;;;;;4.13;3.17;;;;;;;;;;5019995;28;20372;-75
2022/05/06 14:37:50;;;;;;;5.07;2.45;;;;;;;;;;5014434;28;20065;-74
2022/05/06 14:40:17;;;;;;;3.67;2.70;;;;;;;;;;5009253;28;20026;-75
2022/05/06 14:42:43;;;;;;;2.97;2.55;;;;;;;;;;5013188;28;20026;-75
2022/05/06 14:45:10;;;;;;;2.78;2.10;;;;;;;;;;5010752;28;20038;-74
2022/05/06 14:47:36;;;;;;;2.30;2.10;;;;;;;;;;5016289;28;20022;-74
2022/05/06 14:50:03;;;;;;;5.78;3.67;;;;;;;;;;5014443;28;20034;-76
2022/05/06 14:52:29;;;;;;;5.43;4.47;;;;;;;;;;5001621;28;20505;-74
2022/05/06 14:54:56;;;;;;;4.88;4.35;;;;;;;;;;5002045;28;20026;-75
2022/05/06 14:57:22;;;;;;;4.72;4.07;;;;;;;;;;5003731;28;20077;-75
2022/05/06 14:59:48;;;;;;;2.92;2.60;;;;;;;;;;5014329;28;20041;-75
2022/05/06 15:02:14;;;;;;;2.90;2.40;;;;;;;;;;5002579;28;20109;-75
2022/05/06 15:04:41;;;;;;;2.90;2.60;;;;;;;;;;5003017;28;20034;-74
2022/05/06 15:07:07;;;;;;;2.63;2.40;;;;;;;;;;5007487;28;20042;-75
2022/05/06 15:09:34;;;;;;;3.20;2.40;;;;;;;;;;5000528;28;20034;-75
2022/05/06 15:12:00;;;;;;;2.75;2.47;;;;;;;;;;5005847;28;20560;-74
2022/05/06 15:14:31;;;;;;;4.85;3.53;;;;;;;;;;5013670;28;20048;-75
2022/05/06 15:17:02;;;;;;;7.15;6.22;;;;;;;;;;5014738;28;20097;-75
2022/05/06 15:19:29;;;;;;;6.90;5.18;;;;;;;;;;5012743;28;20030;-75
2022/05/06 15:21:55;;;;;;;4.78;2.92;;;;;;;;;;5012471;28;20375;-74
2022/05/06 15:24:26;;;;;;;3.17;2.58;;;;;;;;;;5012944;28;20034;-73
2022/05/06 15:26:52;;;;;;;2.53;2.33;;;;;;;;;;5013235;28;20026;-75
2022/05/06 15:29:18;;;;;;;2.80;2.50;;;;;;;;;;5012131;28;20037;-74
2022/05/06 15:31:44;;;;;;;2.70;2.38;;;;;;;;;;5012823;28;20037;-75
2022/05/06 15:34:10;;;;;;;2.45;2.05;;;;;;;;;;5012655;28;20022;-75